Time;durP1;ratioP1;P1;durP2;ratioP2;P2;SDS_P1;SDS_P2;PMS_P1;PMS_P2;Temp;Humidity;BMP_temperature;BMP_pressure;BME280_temperature;BME280_humidity;BME280_pressure;Samples;Min_cycle;Max_cycle;Signal;HPM_P1;HPM_P2
2021/11/28 00:00:39;;;;;;;35.63;18.58;;;;;;;;;;6290017;22;20906;31
2021/11/28 00:16:59;;;;;;;36.20;17.38;;;;;;;;;;6170184;22;20429;31
2021/11/28 00:28:28;;;;;;;31.45;17.23;;;;;;;;;;6260230;22;20547;31
2021/11/28 00:35:42;;;;;;;30.80;17.05;;;;;;;;;;6346576;22;20540;31
2021/11/28 00:42:14;;;;;;;29.00;15.77;;;;;;;;;;6227973;22;20506;31
2021/11/28 00:58:18;;;;;;;31.80;14.75;;;;;;;;;;6177762;22;20859;31
2021/11/28 01:05:07;;;;;;;25.73;14.00;;;;;;;;;;6136295;23;20211;31
2021/11/28 01:18:48;;;;;;;24.52;12.80;;;;;;;;;;6227872;22;20193;31
2021/11/28 01:25:31;;;;;;;22.38;13.13;;;;;;;;;;6288129;22;20200;31
2021/11/28 01:36:36;;;;;;;21.77;12.48;;;;;;;;;;6348098;22;20540;31
2021/11/28 01:56:45;;;;;;;20.77;12.30;;;;;;;;;;6261061;22;20524;31
2021/11/28 02:04:21;;;;;;;21.45;12.73;;;;;;;;;;6293734;22;20539;31
2021/11/28 02:28:12;;;;;;;21.95;12.00;;;;;;;;;;6228235;22;20208;31
2021/11/28 02:32:56;;;;;;;22.02;11.65;;;;;;;;;;6260140;22;20572;31
2021/11/28 02:42:07;;;;;;;22.13;11.52;;;;;;;;;;6196826;22;20218;31
2021/11/28 02:49:05;;;;;;;21.67;12.60;;;;;;;;;;6289473;22;20203;31
2021/11/28 02:53:19;;;;;;;22.65;11.93;;;;;;;;;;6292522;22;20511;31
2021/11/28 03:16:19;;;;;;;26.60;13.40;;;;;;;;;;6233332;22;20205;31
2021/11/28 03:30:11;;;;;;;25.17;13.65;;;;;;;;;;6189961;22;20210;31
2021/11/28 03:51:36;;;;;;;30.30;14.30;;;;;;;;;;6201191;22;20202;31
2021/11/28 03:55:40;;;;;;;29.38;14.30;;;;;;;;;;6290243;22;20566;31
2021/11/28 04:05:02;;;;;;;28.48;14.50;;;;;;;;;;6224379;22;20209;31
2021/11/28 04:30:15;;;;;;;25.55;14.02;;;;;;;;;;6212133;22;20269;31
2021/11/28 04:44:15;;;;;;;22.08;12.93;;;;;;;;;;6205758;22;20524;31
2021/11/28 05:10:10;;;;;;;24.33;12.35;;;;;;;;;;6289560;22;20200;31
2021/11/28 05:17:03;;;;;;;23.85;11.38;;;;;;;;;;6258168;22;20204;31
2021/11/28 05:30:52;;;;;;;22.55;11.85;;;;;;;;;;6204262;22;20198;31
2021/11/28 05:51:16;;;;;;;20.75;11.48;;;;;;;;;;6197685;22;20202;31
2021/11/28 06:02:27;;;;;;;24.05;11.18;;;;;;;;;;6213146;22;20276;31
2021/11/28 06:22:52;;;;;;;13.85;7.75;;;;;;;;;;6212812;22;20272;31
2021/11/28 06:31:59;;;;;;;12.05;6.82;;;;;;;;;;6197426;22;20209;31
2021/11/28 06:45:40;;;;;;;7.95;4.80;;;;;;;;;;6286756;22;20200;31
2021/11/28 07:06:42;;;;;;;8.15;5.05;;;;;;;;;;6202666;22;20451;31
2021/11/28 07:11:07;;;;;;;7.78;5.32;;;;;;;;;;6260934;22;21014;31
2021/11/28 07:48:16;;;;;;;4.65;4.10;;;;;;;;;;6287446;22;20437;31
2021/11/28 08:09:08;;;;;;;4.60;3.83;;;;;;;;;;6179058;22;20226;31
2021/11/28 08:13:22;;;;;;;4.35;3.80;;;;;;;;;;6166860;22;20503;-59
2021/11/28 08:40:46;;;;;;;4.63;3.85;;;;;;;;;;6288853;22;21163;-60
2021/11/28 08:56:34;;;;;;;5.53;4.45;;;;;;;;;;6293043;22;20200;31
2021/11/28 09:00:55;;;;;;;5.68;4.30;;;;;;;;;;6332332;22;20536;-60
2021/11/28 09:17:04;;;;;;;7.18;5.43;;;;;;;;;;6194564;22;20202;31
2021/11/28 09:37:39;;;;;;;6.85;5.00;;;;;;;;;;6294821;22;20220;31
2021/11/28 10:02:58;;;;;;;6.57;5.45;;;;;;;;;;6290903;22;20515;31
2021/11/28 10:12:02;;;;;;;6.88;5.30;;;;;;;;;;6319410;22;20207;31
2021/11/28 10:16:08;;;;;;;6.93;5.38;;;;;;;;;;6168973;22;20522;31
2021/11/28 10:18:34;;;;;;;5.72;4.78;;;;;;;;;;6136792;23;20189;31
2021/11/28 10:23:03;;;;;;;7.00;5.30;;;;;;;;;;6334116;22;20549;31
2021/11/28 10:32:27;;;;;;;7.65;4.72;;;;;;;;;;6209882;22;20201;31
2021/11/28 10:39:19;;;;;;;7.15;5.22;;;;;;;;;;6202083;22;20202;31
2021/11/28 10:46:21;;;;;;;7.93;5.60;;;;;;;;;;6202723;22;20202;31
2021/11/28 11:06:52;;;;;;;7.68;5.35;;;;;;;;;;6140795;23;20208;31
2021/11/28 11:24:44;;;;;;;4.97;4.15;;;;;;;;;;6229196;22;21828;31
2021/11/28 11:48:33;;;;;;;3.85;3.13;;;;;;;;;;6143425;23;20219;31
2021/11/28 12:02:53;;;;;;;4.15;3.47;;;;;;;;;;6314133;22;20192;31
2021/11/28 12:14:08;;;;;;;4.10;3.70;;;;;;;;;;6230902;22;21538;31
2021/11/28 12:20:49;;;;;;;4.38;3.97;;;;;;;;;;6185111;22;20527;-60
2021/11/28 12:23:34;;;;;;;5.13;4.47;;;;;;;;;;6194226;23;20169;-60
2021/11/28 12:26:00;;;;;;;5.55;4.95;;;;;;;;;;6194080;23;20218;-61
2021/11/28 12:28:27;;;;;;;5.30;4.50;;;;;;;;;;6193869;23;20145;-61
2021/11/28 12:31:04;;;;;;;5.95;4.93;;;;;;;;;;6194597;23;20221;-61
2021/11/28 12:33:49;;;;;;;5.65;4.57;;;;;;;;;;6194466;23;20172;-61
2021/11/28 12:36:36;;;;;;;5.43;4.80;;;;;;;;;;6194575;23;20152;-61
2021/11/28 12:39:10;;;;;;;6.63;5.20;;;;;;;;;;6194482;23;20169;-61
2021/11/28 12:41:56;;;;;;;5.85;4.70;;;;;;;;;;6194733;23;20142;-61
2021/11/28 12:44:26;;;;;;;5.97;5.10;;;;;;;;;;6173742;23;20199;-61
2021/11/28 12:46:56;;;;;;;5.95;5.20;;;;;;;;;;6193920;23;20164;-61
2021/11/28 12:49:30;;;;;;;6.35;5.18;;;;;;;;;;6194066;23;20137;-61
2021/11/28 12:51:57;;;;;;;6.05;4.78;;;;;;;;;;6194258;23;20165;-61
2021/11/28 12:54:24;;;;;;;6.50;5.20;;;;;;;;;;6193575;23;20145;-61
2021/11/28 12:57:10;;;;;;;6.35;5.15;;;;;;;;;;6193639;23;20145;-61
2021/11/28 12:59:36;;;;;;;6.60;5.45;;;;;;;;;;6193409;23;20268;-61
2021/11/28 13:02:02;;;;;;;6.80;5.60;;;;;;;;;;6193945;23;20161;-61
2021/11/28 13:04:40;;;;;;;7.63;6.20;;;;;;;;;;6193536;23;20188;-61
2021/11/28 13:07:25;;;;;;;9.05;5.82;;;;;;;;;;6193503;23;20168;-61
2021/11/28 13:09:55;;;;;;;9.75;6.43;;;;;;;;;;6193657;23;20156;-60
2021/11/28 13:12:22;;;;;;;9.02;6.05;;;;;;;;;;6193847;23;20149;-60
2021/11/28 13:14:48;;;;;;;9.55;6.32;;;;;;;;;;6193510;23;20172;-60
2021/11/28 13:17:20;;;;;;;9.23;6.78;;;;;;;;;;6193440;23;20153;-61
2021/11/28 13:19:49;;;;;;;9.98;7.03;;;;;;;;;;6193018;23;20176;-60
2021/11/28 13:22:15;;;;;;;9.80;6.88;;;;;;;;;;6193618;23;20129;-61
2021/11/28 13:24:41;;;;;;;9.07;6.90;;;;;;;;;;6193201;23;20168;-61
2021/11/28 13:27:07;;;;;;;10.98;8.20;;;;;;;;;;6193195;23;20145;-61
2021/11/28 13:29:34;;;;;;;10.40;7.25;;;;;;;;;;6193145;23;20584;-61
2021/11/28 13:32:01;;;;;;;10.95;7.72;;;;;;;;;;6186710;23;20528;-61
2021/11/28 13:34:30;;;;;;;12.63;7.90;;;;;;;;;;6186879;23;20158;-61
2021/11/28 13:36:56;;;;;;;12.32;8.25;;;;;;;;;;6186790;23;20455;-60
2021/11/28 13:39:24;;;;;;;11.45;7.50;;;;;;;;;;6186145;23;20176;-61
2021/11/28 13:41:50;;;;;;;10.98;7.80;;;;;;;;;;6186742;23;20160;-61
2021/11/28 13:44:18;;;;;;;11.57;8.20;;;;;;;;;;6186061;23;20146;-61
2021/11/28 13:46:47;;;;;;;11.82;8.13;;;;;;;;;;6186914;23;20138;-61
2021/11/28 13:49:14;;;;;;;12.55;8.60;;;;;;;;;;6184914;23;20188;-60
2021/11/28 13:51:44;;;;;;;14.07;8.43;;;;;;;;;;6186233;23;20142;-61
2021/11/28 13:54:21;;;;;;;12.73;8.57;;;;;;;;;;6186646;23;20153;-61
2021/11/28 13:56:48;;;;;;;13.13;8.07;;;;;;;;;;6186582;23;20165;-61
2021/11/28 13:59:16;;;;;;;12.43;8.65;;;;;;;;;;6186301;23;20170;-61
2021/11/28 14:01:42;;;;;;;13.48;9.02;;;;;;;;;;6186186;23;20137;-61
2021/11/28 14:04:18;;;;;;;11.73;8.18;;;;;;;;;;6186774;23;20165;-60
2021/11/28 14:06:45;;;;;;;14.38;9.00;;;;;;;;;;6186036;23;20545;-60
2021/11/28 14:09:11;;;;;;;12.50;8.57;;;;;;;;;;6186366;23;20153;-60
2021/11/28 14:11:41;;;;;;;12.95;7.75;;;;;;;;;;6186195;23;20604;-60
2021/11/28 14:14:09;;;;;;;13.13;8.48;;;;;;;;;;6186580;23;20146;-60
2021/11/28 14:16:35;;;;;;;11.07;7.35;;;;;;;;;;6186494;23;20179;-60
2021/11/28 14:19:01;;;;;;;12.00;8.43;;;;;;;;;;6186161;23;20724;-60
2021/11/28 14:21:37;;;;;;;11.90;8.00;;;;;;;;;;6185956;23;20165;-61
2021/11/28 14:24:03;;;;;;;13.20;8.90;;;;;;;;;;6186177;23;20530;-60
2021/11/28 14:26:30;;;;;;;12.70;8.73;;;;;;;;;;6186792;23;20142;-61
2021/11/28 14:28:57;;;;;;;13.80;9.48;;;;;;;;;;6185929;23;20208;-61
2021/11/28 14:31:23;;;;;;;12.80;8.60;;;;;;;;;;6185957;23;20145;-59
2021/11/28 14:33:53;;;;;;;13.77;8.98;;;;;;;;;;6186396;23;20142;-61
2021/11/28 14:36:21;;;;;;;12.38;8.70;;;;;;;;;;6186834;23;20142;-59
2021/11/28 14:38:48;;;;;;;12.98;8.60;;;;;;;;;;6186571;23;20185;-61
2021/11/28 14:41:16;;;;;;;14.77;9.38;;;;;;;;;;6186734;23;20235;-60
2021/11/28 14:43:48;;;;;;;13.88;8.85;;;;;;;;;;6186350;23;20150;-61
2021/11/28 14:46:20;;;;;;;11.93;8.27;;;;;;;;;;6186438;23;20146;-60
2021/11/28 14:48:46;;;;;;;12.82;8.27;;;;;;;;;;6186655;23;20133;-60
2021/11/28 14:51:13;;;;;;;12.15;8.07;;;;;;;;;;6186317;23;20142;-60
2021/11/28 14:53:42;;;;;;;12.38;7.95;;;;;;;;;;6186616;23;20149;-60
2021/11/28 14:56:09;;;;;;;11.45;8.18;;;;;;;;;;6186227;23;20155;-60
2021/11/28 14:58:43;;;;;;;11.05;7.70;;;;;;;;;;6186344;23;20403;-60
2021/11/28 15:01:10;;;;;;;10.52;7.30;;;;;;;;;;6185980;23;20574;-60
2021/11/28 15:03:37;;;;;;;9.93;6.50;;;;;;;;;;6186382;23;20216;-61
2021/11/28 15:06:04;;;;;;;10.73;7.30;;;;;;;;;;6186608;23;20148;-61
2021/11/28 15:08:37;;;;;;;10.20;7.20;;;;;;;;;;6186011;23;20151;-60
2021/11/28 15:11:03;;;;;;;10.30;7.07;;;;;;;;;;6186007;23;20432;-60
2021/11/28 15:13:31;;;;;;;9.38;6.55;;;;;;;;;;6186274;23;20142;-62
2021/11/28 15:15:58;;;;;;;7.35;6.10;;;;;;;;;;6185697;23;20137;-61
2021/11/28 15:18:24;;;;;;;9.15;6.57;;;;;;;;;;6185533;23;20138;-61
2021/11/28 15:20:50;;;;;;;9.32;6.55;;;;;;;;;;6185271;23;20168;-61
2021/11/28 15:23:16;;;;;;;9.80;6.88;;;;;;;;;;6185373;23;20165;-61
2021/11/28 15:25:43;;;;;;;9.18;6.78;;;;;;;;;;6185488;23;20150;-61
2021/11/28 15:28:09;;;;;;;9.52;6.65;;;;;;;;;;6185819;23;20180;-61
2021/11/28 15:30:36;;;;;;;8.32;6.28;;;;;;;;;;6185327;23;20631;-61
2021/11/28 15:33:03;;;;;;;9.07;6.85;;;;;;;;;;6185411;23;20170;-61
2021/11/28 15:35:30;;;;;;;9.35;6.20;;;;;;;;;;6185306;23;20455;-61
2021/11/28 15:37:59;;;;;;;8.63;6.38;;;;;;;;;;6185393;23;20173;-61
2021/11/28 15:40:26;;;;;;;10.98;7.50;;;;;;;;;;6185931;23;20183;-61
2021/11/28 15:42:56;;;;;;;11.52;7.90;;;;;;;;;;6185242;23;20142;-61
2021/11/28 15:45:23;;;;;;;12.30;8.23;;;;;;;;;;6185637;23;20172;-61
2021/11/28 15:47:49;;;;;;;12.77;8.05;;;;;;;;;;6185437;23;20152;-60
2021/11/28 15:50:16;;;;;;;12.70;7.63;;;;;;;;;;6185750;23;20149;-60
2021/11/28 15:52:42;;;;;;;11.63;7.40;;;;;;;;;;6185564;23;20172;-59
2021/11/28 15:55:12;;;;;;;13.95;7.53;;;;;;;;;;6186113;23;20226;-60
2021/11/28 15:57:38;;;;;;;11.98;7.45;;;;;;;;;;6185813;23;20220;-60
2021/11/28 16:00:05;;;;;;;10.68;6.75;;;;;;;;;;6186297;23;20557;-60
2021/11/28 16:02:32;;;;;;;12.05;6.78;;;;;;;;;;6186079;23;20138;-60
2021/11/28 16:04:58;;;;;;;10.65;6.53;;;;;;;;;;6187633;23;20152;-60
2021/11/28 16:07:24;;;;;;;11.43;7.10;;;;;;;;;;6186873;23;20165;-59
2021/11/28 16:09:50;;;;;;;11.50;7.40;;;;;;;;;;6186722;23;20244;-59
2021/11/28 16:12:16;;;;;;;10.80;6.85;;;;;;;;;;6185052;23;20168;-60
2021/11/28 16:14:42;;;;;;;11.02;7.10;;;;;;;;;;6185320;23;20146;-61
2021/11/28 16:17:08;;;;;;;11.18;7.20;;;;;;;;;;6184551;23;20153;-60
2021/11/28 16:19:34;;;;;;;11.18;7.35;;;;;;;;;;6185405;23;20173;-61
2021/11/28 16:22:01;;;;;;;10.55;6.72;;;;;;;;;;6185505;23;20159;-60
2021/11/28 16:24:27;;;;;;;11.02;6.55;;;;;;;;;;6185694;23;20164;-60
2021/11/28 16:26:53;;;;;;;10.85;6.65;;;;;;;;;;6185420;23;20431;-60
2021/11/28 16:29:19;;;;;;;11.50;6.68;;;;;;;;;;6185306;23;20562;-60
2021/11/28 16:31:45;;;;;;;12.18;7.55;;;;;;;;;;6185367;23;20173;-60
2021/11/28 16:34:11;;;;;;;11.90;7.00;;;;;;;;;;6185488;23;20141;-60
2021/11/28 16:36:37;;;;;;;13.68;7.80;;;;;;;;;;6185545;23;20142;-60
2021/11/28 16:39:07;;;;;;;15.25;8.00;;;;;;;;;;6185793;23;20173;-60
2021/11/28 16:41:33;;;;;;;15.30;8.38;;;;;;;;;;6185541;23;20164;-58
2021/11/28 16:44:02;;;;;;;15.55;8.50;;;;;;;;;;6185932;23;20149;-60
2021/11/28 16:46:28;;;;;;;17.42;8.68;;;;;;;;;;6185158;23;20145;-60
2021/11/28 16:48:54;;;;;;;15.82;8.30;;;;;;;;;;6185078;23;20222;-60
2021/11/28 16:51:20;;;;;;;13.27;7.93;;;;;;;;;;6185367;23;20180;-61
2021/11/28 16:53:46;;;;;;;15.07;8.50;;;;;;;;;;6184995;23;20153;-61
2021/11/28 16:56:12;;;;;;;13.32;8.27;;;;;;;;;;6185253;23;20145;-61
2021/11/28 16:58:38;;;;;;;15.25;8.45;;;;;;;;;;6184927;23;20146;-61
2021/11/28 17:01:04;;;;;;;16.40;8.85;;;;;;;;;;6184949;23;20142;-61
2021/11/28 17:03:32;;;;;;;15.35;7.95;;;;;;;;;;6186069;23;20146;-60
2021/11/28 17:05:59;;;;;;;13.52;7.63;;;;;;;;;;6185862;23;20156;-60
2021/11/28 17:08:26;;;;;;;12.25;7.72;;;;;;;;;;6186991;23;20141;-60
2021/11/28 17:10:52;;;;;;;14.02;7.60;;;;;;;;;;6186657;23;20442;-60
2021/11/28 17:13:18;;;;;;;12.27;7.63;;;;;;;;;;6186403;23;20481;-60
2021/11/28 17:15:45;;;;;;;11.15;6.97;;;;;;;;;;6186924;23;20233;-60
2021/11/28 17:18:11;;;;;;;11.50;6.55;;;;;;;;;;6186804;23;20212;-60
2021/11/28 17:20:38;;;;;;;11.38;5.93;;;;;;;;;;6186365;23;20181;-60
2021/11/28 17:23:04;;;;;;;7.20;5.03;;;;;;;;;;6186767;23;20145;-60
2021/11/28 17:25:31;;;;;;;9.18;4.97;;;;;;;;;;6186508;23;20153;-60
2021/11/28 17:27:57;;;;;;;7.25;4.90;;;;;;;;;;6186660;23;20146;-60
2021/11/28 17:30:23;;;;;;;6.25;4.20;;;;;;;;;;6186499;23;20170;-62
2021/11/28 17:32:49;;;;;;;5.80;4.10;;;;;;;;;;6186483;23;20145;-60
2021/11/28 17:35:15;;;;;;;6.38;4.20;;;;;;;;;;6186388;23;20174;-59
2021/11/28 17:37:41;;;;;;;5.03;3.40;;;;;;;;;;6186198;23;20172;-60
2021/11/28 17:40:08;;;;;;;5.93;4.15;;;;;;;;;;6186212;23;20166;-61
2021/11/28 17:42:34;;;;;;;6.07;3.88;;;;;;;;;;6186267;23;20146;-60
2021/11/28 17:45:00;;;;;;;5.25;3.83;;;;;;;;;;6186368;23;20225;-60
2021/11/28 17:47:28;;;;;;;6.22;4.13;;;;;;;;;;6186679;23;20146;-60
2021/11/28 17:49:54;;;;;;;6.32;3.75;;;;;;;;;;6187060;23;20217;-60
2021/11/28 17:52:20;;;;;;;6.40;4.13;;;;;;;;;;6186560;23;20281;-60
2021/11/28 17:54:46;;;;;;;6.65;4.40;;;;;;;;;;6187711;23;20236;-59
2021/11/28 17:57:12;;;;;;;6.78;4.97;;;;;;;;;;6187766;23;20155;-60
2021/11/28 17:59:38;;;;;;;6.75;4.00;;;;;;;;;;6187012;23;20248;-61
2021/11/28 18:02:04;;;;;;;5.05;3.78;;;;;;;;;;6187145;23;20180;-60
2021/11/28 18:04:30;;;;;;;6.45;3.88;;;;;;;;;;6189505;23;20232;-61
2021/11/28 18:07:00;;;;;;;5.57;3.67;;;;;;;;;;6189374;23;20141;-63
2021/11/28 18:09:27;;;;;;;5.68;3.72;;;;;;;;;;6189706;23;20196;-62
2021/11/28 18:11:54;;;;;;;4.97;3.53;;;;;;;;;;6188450;23;20288;-63
2021/11/28 18:14:20;;;;;;;4.90;3.63;;;;;;;;;;6190431;23;20559;-63
2021/11/28 18:16:51;;;;;;;5.32;3.40;;;;;;;;;;6190863;23;20149;-63
2021/11/28 18:19:17;;;;;;;4.53;3.80;;;;;;;;;;6191697;23;20168;-62
2021/11/28 18:21:43;;;;;;;5.30;3.85;;;;;;;;;;6191800;23;20173;-62
2021/11/28 18:24:09;;;;;;;5.35;3.78;;;;;;;;;;6195448;23;20142;-63
2021/11/28 18:26:35;;;;;;;6.32;4.35;;;;;;;;;;6191675;23;20545;-63
2021/11/28 18:29:01;;;;;;;6.20;3.88;;;;;;;;;;6190523;23;20145;-62
2021/11/28 18:31:29;;;;;;;5.75;3.80;;;;;;;;;;6198316;23;20153;-62
2021/11/28 18:33:55;;;;;;;5.45;3.92;;;;;;;;;;6199924;23;20220;-63
2021/11/28 18:36:22;;;;;;;5.72;3.90;;;;;;;;;;6193099;23;20145;-62
2021/11/28 18:38:49;;;;;;;5.95;4.50;;;;;;;;;;6186775;23;20170;-61
2021/11/28 18:41:15;;;;;;;6.18;4.45;;;;;;;;;;6187117;23;20141;-63
2021/11/28 18:43:41;;;;;;;7.00;4.18;;;;;;;;;;6186512;23;20154;-62
2021/11/28 18:46:07;;;;;;;6.50;4.30;;;;;;;;;;6186227;23;20554;-63
2021/11/28 18:48:33;;;;;;;9.02;4.60;;;;;;;;;;6185986;23;20194;-63
2021/11/28 18:50:59;;;;;;;7.72;5.22;;;;;;;;;;6185982;23;20153;-63
2021/11/28 18:53:25;;;;;;;6.35;4.85;;;;;;;;;;6184702;23;20176;-63
2021/11/28 18:55:51;;;;;;;7.35;4.50;;;;;;;;;;6185910;23;20549;-63
2021/11/28 18:58:17;;;;;;;6.88;4.63;;;;;;;;;;6185603;23;20204;-63
2021/11/28 19:00:44;;;;;;;7.40;5.13;;;;;;;;;;6185553;23;20161;-63
2021/11/28 19:03:10;;;;;;;6.22;4.38;;;;;;;;;;6185533;23;20200;-63
2021/11/28 19:05:36;;;;;;;6.75;4.80;;;;;;;;;;6185948;23;20141;-62
2021/11/28 19:08:02;;;;;;;6.45;4.65;;;;;;;;;;6185602;23;20149;-63
2021/11/28 19:10:29;;;;;;;7.78;5.25;;;;;;;;;;6185855;23;20167;-62
2021/11/28 19:12:58;;;;;;;9.48;4.95;;;;;;;;;;6185499;23;20587;-63
2021/11/28 19:15:24;;;;;;;8.70;5.80;;;;;;;;;;6185566;23;20186;-63
2021/11/28 19:17:50;;;;;;;9.40;5.90;;;;;;;;;;6185779;23;20244;-63
2021/11/28 19:20:17;;;;;;;6.85;5.00;;;;;;;;;;6185427;23;20197;-63
2021/11/28 19:22:43;;;;;;;7.78;5.32;;;;;;;;;;6185674;23;20544;-63
2021/11/28 19:25:09;;;;;;;9.18;6.13;;;;;;;;;;6185483;23;20542;-63
2021/11/28 19:27:35;;;;;;;9.65;5.80;;;;;;;;;;6185560;23;20562;-63
2021/11/28 19:30:04;;;;;;;8.43;5.47;;;;;;;;;;6185375;23;20152;-63
2021/11/28 19:32:30;;;;;;;8.35;5.88;;;;;;;;;;6185819;23;20164;-63
2021/11/28 19:34:56;;;;;;;9.75;6.32;;;;;;;;;;6185629;23;20554;-63
2021/11/28 19:37:22;;;;;;;10.75;6.18;;;;;;;;;;6185829;23;20141;-63
2021/11/28 19:39:48;;;;;;;9.43;6.28;;;;;;;;;;6185731;23;20184;-63
2021/11/28 19:42:14;;;;;;;9.02;6.22;;;;;;;;;;6186208;23;20462;-63
2021/11/28 19:44:39;;;;;;;9.07;6.10;;;;;;;;;;6185648;23;20137;-63
2021/11/28 19:47:06;;;;;;;10.05;6.18;;;;;;;;;;6185647;23;20141;-63
2021/11/28 19:49:32;;;;;;;8.52;5.82;;;;;;;;;;6185731;23;20176;-64
2021/11/28 19:51:58;;;;;;;10.85;6.47;;;;;;;;;;6185906;23;20145;-63
2021/11/28 19:54:24;;;;;;;9.38;6.32;;;;;;;;;;6184977;23;20561;-63
2021/11/28 19:56:50;;;;;;;9.98;6.15;;;;;;;;;;6185293;23;20177;-63
2021/11/28 19:59:16;;;;;;;10.27;6.68;;;;;;;;;;6185036;23;20228;-63
2021/11/28 20:01:42;;;;;;;10.13;6.35;;;;;;;;;;6185280;23;20138;-63
2021/11/28 20:04:08;;;;;;;8.77;6.28;;;;;;;;;;6185427;23;20195;-63
2021/11/28 20:06:34;;;;;;;10.05;6.80;;;;;;;;;;6185450;23;20138;-63
2021/11/28 20:09:01;;;;;;;10.02;6.45;;;;;;;;;;6185442;23;20157;-63
2021/11/28 20:11:27;;;;;;;9.45;6.07;;;;;;;;;;6185687;23;20169;-63
2021/11/28 20:13:58;;;;;;;8.05;5.60;;;;;;;;;;6185824;23;20256;-63
2021/11/28 20:16:26;;;;;;;9.02;6.13;;;;;;;;;;6185772;23;20133;-63
2021/11/28 20:18:52;;;;;;;10.18;6.43;;;;;;;;;;6185404;23;20169;-63
2021/11/28 20:21:18;;;;;;;9.95;6.15;;;;;;;;;;6185515;23;20295;-63
2021/11/28 20:23:44;;;;;;;10.60;6.72;;;;;;;;;;6185547;23;20215;-63
2021/11/28 20:26:10;;;;;;;10.75;6.60;;;;;;;;;;6185795;23;20562;-62
2021/11/28 20:28:36;;;;;;;11.07;7.28;;;;;;;;;;6186271;23;20145;-63
2021/11/28 20:31:02;;;;;;;11.52;7.40;;;;;;;;;;6185975;23;20149;-63
2021/11/28 20:33:29;;;;;;;11.35;7.20;;;;;;;;;;6186415;23;20279;-63
2021/11/28 20:35:55;;;;;;;13.30;6.75;;;;;;;;;;6186068;23;20141;-63
2021/11/28 20:38:21;;;;;;;10.05;6.70;;;;;;;;;;6185569;23;20554;-63
2021/11/28 20:40:47;;;;;;;10.68;6.75;;;;;;;;;;6185847;23;20173;-63
2021/11/28 20:43:13;;;;;;;9.93;6.60;;;;;;;;;;6187498;23;20528;-62
2021/11/28 20:45:39;;;;;;;11.23;7.45;;;;;;;;;;6187231;23;20545;-62
2021/11/28 20:48:06;;;;;;;10.75;6.70;;;;;;;;;;6187633;23;20153;-63
2021/11/28 20:50:32;;;;;;;10.88;6.82;;;;;;;;;;6187136;23;20146;-62
2021/11/28 20:52:58;;;;;;;11.35;6.90;;;;;;;;;;6187133;23;20413;-63
2021/11/28 20:55:24;;;;;;;11.57;6.93;;;;;;;;;;6187209;23;20146;-63
2021/11/28 20:57:50;;;;;;;11.18;6.80;;;;;;;;;;6187050;23;20487;-63
2021/11/28 21:00:22;;;;;;;11.57;7.13;;;;;;;;;;6186931;23;20586;-63
2021/11/28 21:02:48;;;;;;;10.38;6.72;;;;;;;;;;6187241;23;20220;-63
2021/11/28 21:05:14;;;;;;;10.65;6.80;;;;;;;;;;6186991;23;20145;-63
2021/11/28 21:07:40;;;;;;;13.25;7.60;;;;;;;;;;6187045;23;20153;-63
2021/11/28 21:10:08;;;;;;;11.15;7.05;;;;;;;;;;6186583;23;20231;-63
2021/11/28 21:12:34;;;;;;;13.00;8.07;;;;;;;;;;6187002;23;20168;-62
2021/11/28 21:15:00;;;;;;;12.85;7.25;;;;;;;;;;6186655;23;20177;-63
2021/11/28 21:17:30;;;;;;;11.32;7.28;;;;;;;;;;6187215;23;20150;-63
2021/11/28 21:19:57;;;;;;;11.75;7.63;;;;;;;;;;6186509;23;20181;-63
2021/11/28 21:22:23;;;;;;;11.40;7.45;;;;;;;;;;6186767;23;20165;-62
2021/11/28 21:24:49;;;;;;;12.13;7.25;;;;;;;;;;6186698;23;20142;-62
2021/11/28 21:27:15;;;;;;;13.35;7.82;;;;;;;;;;6186693;23;20219;-62
2021/11/28 21:29:41;;;;;;;12.20;7.63;;;;;;;;;;6186314;23;20635;-62
2021/11/28 21:32:07;;;;;;;12.75;7.95;;;;;;;;;;6186508;23;20221;-62
2021/11/28 21:34:36;;;;;;;13.93;7.43;;;;;;;;;;6185121;23;20149;-62
2021/11/28 21:37:04;;;;;;;14.38;8.18;;;;;;;;;;6186400;23;20153;-63
2021/11/28 21:39:30;;;;;;;13.43;8.25;;;;;;;;;;6186334;23;20573;-63
2021/11/28 21:41:56;;;;;;;12.52;8.00;;;;;;;;;;6186323;23;20149;-63
2021/11/28 21:44:22;;;;;;;12.60;7.55;;;;;;;;;;6186699;23;20141;-63
2021/11/28 21:46:48;;;;;;;13.63;8.18;;;;;;;;;;6186485;23;20164;-63
2021/11/28 21:49:15;;;;;;;12.68;7.85;;;;;;;;;;6186732;23;20142;-63
2021/11/28 21:51:41;;;;;;;13.27;7.43;;;;;;;;;;6186053;23;20177;-63
2021/11/28 21:54:08;;;;;;;9.75;6.55;;;;;;;;;;6186507;23;20146;-63
2021/11/28 21:56:35;;;;;;;14.07;7.75;;;;;;;;;;6187025;23;20145;-63
2021/11/28 21:59:01;;;;;;;12.02;7.53;;;;;;;;;;6187492;23;20579;-63
2021/11/28 22:01:27;;;;;;;11.38;7.20;;;;;;;;;;6186945;23;20232;-64
2021/11/28 22:03:53;;;;;;;12.15;7.40;;;;;;;;;;6185064;23;20142;-63
2021/11/28 22:06:19;;;;;;;14.32;7.85;;;;;;;;;;6186225;23;20141;-64
2021/11/28 22:08:45;;;;;;;10.30;7.22;;;;;;;;;;6187030;23;20212;-63
2021/11/28 22:11:12;;;;;;;11.98;7.45;;;;;;;;;;6187030;23;20165;-63
2021/11/28 22:13:38;;;;;;;11.90;7.78;;;;;;;;;;6186928;23;20173;-62
2021/11/28 22:16:04;;;;;;;12.15;7.90;;;;;;;;;;6187143;23;20138;-62
2021/11/28 22:18:31;;;;;;;13.50;7.07;;;;;;;;;;6186985;23;20138;-62
2021/11/28 22:20:57;;;;;;;12.25;7.43;;;;;;;;;;6187181;23;20260;-63
2021/11/28 22:23:23;;;;;;;13.07;7.90;;;;;;;;;;6187988;23;20142;-63
2021/11/28 22:25:49;;;;;;;13.20;8.02;;;;;;;;;;6187535;23;20731;-63
2021/11/28 22:28:16;;;;;;;12.02;7.72;;;;;;;;;;6189633;23;20153;-63
2021/11/28 22:30:43;;;;;;;13.25;7.60;;;;;;;;;;6191556;23;20223;-63
2021/11/28 22:33:10;;;;;;;13.18;8.02;;;;;;;;;;6191873;23;20544;-62
2021/11/28 22:35:37;;;;;;;15.35;8.35;;;;;;;;;;6190951;23;20145;-63
2021/11/28 22:38:03;;;;;;;12.98;7.75;;;;;;;;;;6192125;23;20585;-63
2021/11/28 22:40:30;;;;;;;13.88;8.45;;;;;;;;;;6191832;23;20540;-62
2021/11/28 22:42:56;;;;;;;11.77;7.28;;;;;;;;;;6190844;23;20142;-63
2021/11/28 22:45:22;;;;;;;12.80;8.10;;;;;;;;;;6190908;23;20169;-63
2021/11/28 22:47:49;;;;;;;12.73;7.22;;;;;;;;;;6190915;23;20204;-63
2021/11/28 22:50:19;;;;;;;13.35;8.30;;;;;;;;;;6189945;23;20183;-63
2021/11/28 22:52:45;;;;;;;14.65;8.13;;;;;;;;;;6190377;23;20229;-62
2021/11/28 22:55:12;;;;;;;14.18;8.45;;;;;;;;;;6191241;23;20146;-62
2021/11/28 22:57:39;;;;;;;14.10;8.35;;;;;;;;;;6191510;23;20152;-62
2021/11/28 23:00:35;;;;;;;15.02;9.02;;;;;;;;;;6190948;23;20465;-61
2021/11/28 23:03:02;;;;;;;13.27;7.93;;;;;;;;;;6191841;23;20492;-63
2021/11/28 23:05:28;;;;;;;15.55;8.20;;;;;;;;;;6190704;23;20546;-62
2021/11/28 23:07:54;;;;;;;15.70;8.05;;;;;;;;;;6191531;23;20577;-61
2021/11/28 23:10:20;;;;;;;13.27;7.53;;;;;;;;;;6190726;23;20149;-63
2021/11/28 23:12:46;;;;;;;15.20;8.02;;;;;;;;;;6190619;23;20513;-63
2021/11/28 23:15:13;;;;;;;13.40;7.40;;;;;;;;;;6189634;23;20233;-62
2021/11/28 23:17:39;;;;;;;13.68;7.95;;;;;;;;;;6187808;23;20141;-62
2021/11/28 23:20:06;;;;;;;14.23;7.82;;;;;;;;;;6187795;23;20173;-63
2021/11/28 23:22:33;;;;;;;12.75;7.57;;;;;;;;;;6187539;23;20139;-62
2021/11/28 23:24:59;;;;;;;12.45;7.57;;;;;;;;;;6186975;23;20149;-62
2021/11/28 23:27:25;;;;;;;12.85;7.00;;;;;;;;;;6187111;23;20160;-62
2021/11/28 23:29:51;;;;;;;10.38;6.22;;;;;;;;;;6187952;23;20613;-62
2021/11/28 23:32:18;;;;;;;13.10;7.25;;;;;;;;;;6189110;23;20141;-62
2021/11/28 23:34:44;;;;;;;11.50;6.82;;;;;;;;;;6190302;23;20153;-64
2021/11/28 23:37:10;;;;;;;10.23;6.60;;;;;;;;;;6189942;23;20210;-63
2021/11/28 23:39:36;;;;;;;11.48;6.68;;;;;;;;;;6190463;23;20252;-62
2021/11/28 23:42:03;;;;;;;9.48;6.38;;;;;;;;;;6190524;23;20138;-63
2021/11/28 23:44:29;;;;;;;11.38;6.90;;;;;;;;;;6189110;23;20414;-63
2021/11/28 23:46:55;;;;;;;11.30;6.75;;;;;;;;;;6189487;23;20145;-63
2021/11/28 23:49:21;;;;;;;11.63;7.05;;;;;;;;;;6189093;23;20240;-62
2021/11/28 23:51:47;;;;;;;12.18;7.10;;;;;;;;;;6188895;23;20142;-62
2021/11/28 23:54:13;;;;;;;12.77;7.70;;;;;;;;;;6188012;23;20229;-63
2021/11/28 23:56:40;;;;;;;12.35;7.05;;;;;;;;;;6188540;23;20148;-63
2021/11/28 23:59:06;;;;;;;13.77;7.95;;;;;;;;;;6188079;23;20169;-62
